createdAt,value
2017-06-15T00:00:03.355Z,1015.8
2017-06-15T00:05:02.868Z,1015.69
2017-06-15T00:10:03.330Z,1015.67
2017-06-15T00:15:02.693Z,1015.68
2017-06-15T00:20:03.057Z,1015.61
2017-06-15T00:25:03.463Z,1015.64
2017-06-15T00:30:02.782Z,1015.58
2017-06-15T00:35:03.293Z,1015.56
2017-06-15T00:40:02.729Z,1015.46
2017-06-15T00:45:03.085Z,1015.5
2017-06-15T00:50:03.405Z,1015.49
2017-06-15T00:55:02.757Z,1015.47
2017-06-15T01:00:03.204Z,1015.41
2017-06-15T01:05:02.606Z,1015.37
2017-06-15T01:10:03.055Z,1015.36
2017-06-15T01:15:03.455Z,1015.37
2017-06-15T01:20:02.914Z,1015.29
2017-06-15T01:25:03.269Z,1015.25
2017-06-15T01:30:02.619Z,1015.2
2017-06-15T01:35:03.059Z,1015.15
2017-06-15T01:40:02.580Z,1015.1
2017-06-15T01:45:03.042Z,1015.11
2017-06-15T01:50:03.523Z,1015.02
2017-06-15T01:55:02.933Z,1014.98
2017-06-15T02:00:03.384Z,1014.91
2017-06-15T02:05:02.833Z,1014.84
2017-06-15T02:10:03.264Z,1014.8
2017-06-15T02:15:02.712Z,1014.87
2017-06-15T02:20:03.070Z,1014.8
2017-06-15T02:25:03.500Z,1014.77
2017-06-15T02:30:02.860Z,1014.77
2017-06-15T02:35:03.336Z,1014.76
2017-06-15T02:40:02.737Z,1014.7
2017-06-15T02:45:03.122Z,1014.67
2017-06-15T02:50:02.630Z,1014.66
2017-06-15T02:55:02.925Z,1014.67
2017-06-15T03:00:03.297Z,1014.61
2017-06-15T03:05:02.601Z,1014.56
2017-06-15T03:10:03.124Z,1014.5
2017-06-15T03:15:03.478Z,1014.5
2017-06-15T03:20:02.825Z,1014.46
2017-06-15T03:25:03.206Z,1014.42
2017-06-15T03:30:02.639Z,1014.42
2017-06-15T03:35:03.143Z,1014.45
2017-06-15T03:40:03.461Z,1014.4
2017-06-15T03:45:02.793Z,1014.39
2017-06-15T03:50:03.133Z,1014.44
2017-06-15T03:55:02.548Z,1014.5
2017-06-15T04:00:03.250Z,1014.4
2017-06-15T04:05:02.539Z,1014.44
2017-06-15T04:10:03.019Z,1014.35
2017-06-15T04:15:03.507Z,1014.27
2017-06-15T04:20:02.897Z,1014.31
2017-06-15T04:25:03.419Z,1014.24
2017-06-15T04:30:02.771Z,1014.25
2017-06-15T04:35:03.117Z,1014.31
2017-06-15T04:40:02.549Z,1014.3
2017-06-15T04:45:02.973Z,1014.24
2017-06-15T04:50:03.391Z,1014.37
2017-06-15T04:55:02.775Z,1014.23
2017-06-15T05:00:03.223Z,1014.18
2017-06-15T05:05:02.552Z,1014.24
2017-06-15T05:10:02.936Z,1014.22
2017-06-15T05:15:03.336Z,1014.16
2017-06-15T05:20:02.689Z,1014.17
2017-06-15T05:25:03.077Z,1014.05
2017-06-15T05:30:03.627Z,1014.11
2017-06-15T05:35:03.085Z,1014.05
2017-06-15T05:40:03.391Z,1014.04
2017-06-15T05:45:02.783Z,1013.97
2017-06-15T05:50:03.203Z,1013.82
2017-06-15T05:55:02.611Z,1013.9
2017-06-15T06:00:02.891Z,1013.86
2017-06-15T06:05:03.175Z,1013.84
2017-06-15T06:10:02.616Z,1013.88
2017-06-15T06:15:03.129Z,1013.91
2017-06-15T06:20:02.570Z,1013.94
2017-06-15T06:25:02.899Z,1013.83
2017-06-15T06:30:03.294Z,1013.72
2017-06-15T06:35:02.615Z,1013.79
2017-06-15T06:40:03.065Z,1013.88
2017-06-15T06:45:03.478Z,1013.89
2017-06-15T06:50:02.793Z,1013.89
2017-06-15T06:55:03.164Z,1013.98
2017-06-15T07:00:03.439Z,1013.91
2017-06-15T07:05:02.872Z,1013.99
2017-06-15T07:10:03.290Z,1013.93
2017-06-15T07:15:02.658Z,1013.92
2017-06-15T07:20:02.980Z,1013.94
2017-06-15T07:25:03.275Z,1013.83
2017-06-15T07:30:02.874Z,1013.83
2017-06-15T07:35:03.253Z,1013.92
2017-06-15T07:40:02.676Z,1013.79
2017-06-15T07:45:03.015Z,1013.68
2017-06-15T07:50:03.414Z,1013.64
2017-06-15T07:55:02.695Z,1013.74
2017-06-15T08:00:03.050Z,1013.71
2017-06-15T08:05:03.478Z,1013.68
2017-06-15T08:10:02.900Z,1013.67
2017-06-15T08:15:03.343Z,1013.58
2017-06-15T08:20:02.677Z,1013.56
2017-06-15T08:25:03.109Z,1013.57
2017-06-15T08:30:03.478Z,1013.51
2017-06-15T08:35:02.759Z,1013.47
2017-06-15T08:40:03.259Z,1013.46
2017-06-15T08:45:02.620Z,1013.55
2017-06-15T08:50:03.161Z,1013.49
2017-06-15T08:55:03.456Z,1013.53
2017-06-15T09:00:02.863Z,1013.49
2017-06-15T09:05:03.208Z,1013.35
2017-06-15T09:10:02.569Z,1013.34
2017-06-15T09:15:02.909Z,1013.25
2017-06-15T09:20:03.301Z,1013.19
2017-06-15T09:25:02.650Z,1013.25
2017-06-15T09:30:02.997Z,1013.18
2017-06-15T09:35:02.585Z,1013.13
2017-06-15T09:40:03.060Z,1013.19
2017-06-15T09:45:03.438Z,1013.2
2017-06-15T09:50:02.732Z,1013.18
2017-06-15T10:00:02.634Z,1013.09
2017-06-15T10:05:02.984Z,1013.06
2017-06-15T10:15:03.012Z,1013.03
2017-06-15T10:20:03.511Z,1012.95
2017-06-15T10:25:02.874Z,1012.93
2017-06-15T10:30:03.337Z,1012.95
2017-06-15T10:35:02.949Z,1012.95
2017-06-15T10:40:02.717Z,1012.93
2017-06-15T10:45:03.185Z,1012.84
2017-06-15T10:50:02.672Z,1012.84
2017-06-15T10:55:03.323Z,1012.92
2017-06-15T11:00:02.773Z,1012.74
2017-06-15T11:05:03.183Z,1012.7
2017-06-15T11:15:02.849Z,1012.57
2017-06-15T11:20:02.888Z,1012.51
2017-06-15T11:30:03.345Z,1012.4
2017-06-15T11:35:02.854Z,1012.4
2017-06-15T11:40:02.797Z,1012.28
2017-06-15T11:50:02.483Z,1012.24
2017-06-15T11:55:03.373Z,1012.17
2017-06-15T12:00:02.891Z,1012.19
2017-06-15T12:05:02.663Z,1012.16
2017-06-15T12:10:02.875Z,1012.02
2017-06-15T12:15:03.009Z,1012.01
2017-06-15T12:20:02.568Z,1011.96
2017-06-15T12:25:03.353Z,1011.89
2017-06-15T12:30:03.308Z,1011.9
2017-06-15T12:35:02.503Z,1011.75
2017-06-15T12:40:03.046Z,1011.78
2017-06-15T12:45:02.645Z,1011.39
2017-06-15T12:50:03.365Z,1011.87
2017-06-15T12:55:02.616Z,1011.73
2017-06-15T13:00:02.636Z,1011.68
2017-06-15T13:05:02.656Z,1011.53
2017-06-15T13:10:02.569Z,1011.57
2017-06-15T13:15:03.291Z,1011.52
2017-06-15T13:20:02.923Z,1011.56
2017-06-15T13:25:02.732Z,1011.52
2017-06-15T13:30:03.417Z,1011.41
2017-06-15T13:35:02.744Z,1011.43
2017-06-15T13:40:03.151Z,1011.42
2017-06-15T13:45:03.076Z,1011.45
2017-06-15T13:50:02.822Z,1011.51
2017-06-15T13:55:02.744Z,1011.6
2017-06-15T14:00:03.198Z,1011.66
2017-06-15T14:05:02.565Z,1011.68
2017-06-15T14:10:02.529Z,1011.8
2017-06-15T14:15:03.253Z,1011.93
2017-06-15T14:20:03.397Z,1011.91
2017-06-15T14:25:03.338Z,1011.88
2017-06-15T14:30:02.706Z,1012.01
2017-06-15T14:35:03.049Z,1011.94
2017-06-15T14:40:03.474Z,1011.83
2017-06-15T14:45:02.594Z,1011.83
2017-06-15T14:50:03.236Z,1011.77
2017-06-15T14:55:02.946Z,1011.82
2017-06-15T15:00:02.938Z,1011.73
2017-06-15T15:05:03.298Z,1011.83
2017-06-15T15:10:03.016Z,1011.85
2017-06-15T15:15:03.187Z,1011.98
2017-06-15T15:20:03.287Z,1011.94
2017-06-15T15:25:02.871Z,1012.07
2017-06-15T15:30:03.307Z,1012.13
2017-06-15T15:35:02.499Z,1012.32
2017-06-15T15:40:03.026Z,1012.24
2017-06-15T15:45:03.108Z,1012.24
2017-06-15T15:50:02.542Z,1012.28
2017-06-15T15:55:03.445Z,1012.25
2017-06-15T16:00:03.557Z,1011.98
2017-06-15T16:05:03.346Z,1012.18
2017-06-15T16:10:03.195Z,1012.44
2017-06-15T16:15:03.087Z,1012.42
2017-06-15T16:20:02.591Z,1012.5
2017-06-15T16:25:03.489Z,1012.42
2017-06-15T16:30:03.029Z,1012.38
2017-06-15T16:35:03.401Z,1012.45
2017-06-15T16:40:03.193Z,1012.63
2017-06-15T16:45:02.511Z,1012.51
2017-06-15T16:50:02.970Z,1012.36
2017-06-15T16:55:03.434Z,1012.43
2017-06-15T17:00:02.800Z,1012.23
2017-06-15T17:05:03.149Z,1012.18
2017-06-15T17:10:02.582Z,1012.13
2017-06-15T17:15:03.069Z,1011.97
2017-06-15T17:20:03.486Z,1011.91
2017-06-15T17:25:02.853Z,1011.85
2017-06-15T17:30:03.154Z,1011.85
2017-06-15T17:35:02.547Z,1011.78
2017-06-15T17:40:03.154Z,1011.85
2017-06-15T17:45:02.626Z,1011.85
2017-06-15T17:50:03.195Z,1012.03
2017-06-15T17:55:02.665Z,1012.21
2017-06-15T18:00:03.085Z,1012.15
2017-06-15T18:05:02.520Z,1012.19
2017-06-15T18:10:03.093Z,1012.26
2017-06-15T18:15:03.438Z,1012.29
2017-06-15T18:20:02.742Z,1012.34
2017-06-15T18:25:03.144Z,1012.29
2017-06-15T18:30:02.551Z,1012.21
2017-06-15T18:35:03.123Z,1012.19
2017-06-15T18:40:02.886Z,1012.2
2017-06-15T18:45:03.431Z,1012.29
2017-06-15T18:50:02.959Z,1012.47
2017-06-15T18:55:02.502Z,1012.6
2017-06-15T19:00:03.188Z,1012.69
2017-06-15T19:05:02.691Z,1012.75
2017-06-15T19:10:03.239Z,1012.67
2017-06-15T19:15:02.735Z,1012.8
2017-06-15T19:20:03.273Z,1012.87
2017-06-15T19:25:02.544Z,1012.89
2017-06-15T19:30:02.846Z,1012.92
2017-06-15T19:35:03.152Z,1013.03
2017-06-15T19:40:02.755Z,1013.18
2017-06-15T19:45:03.257Z,1013.15
2017-06-15T19:50:02.709Z,1013.21
2017-06-15T19:55:03.113Z,1013.22
2017-06-15T20:00:03.428Z,1013.36
2017-06-15T20:05:02.762Z,1013.44
2017-06-15T20:10:03.277Z,1013.47
2017-06-15T20:15:02.625Z,1013.46
2017-06-15T20:20:03.133Z,1013.39
2017-06-15T20:25:02.642Z,1013.57
2017-06-15T20:30:03.070Z,1013.65
2017-06-15T20:35:03.536Z,1013.74
2017-06-15T20:40:02.963Z,1013.84
2017-06-15T20:45:03.513Z,1013.95
2017-06-15T20:50:03.136Z,1013.86
2017-06-15T20:55:02.534Z,1013.88
2017-06-15T21:00:03.151Z,1013.87
2017-06-15T21:05:02.520Z,1013.84
2017-06-15T21:10:03.056Z,1013.94
2017-06-15T21:15:03.400Z,1014.03
2017-06-15T21:20:02.753Z,1013.99
2017-06-15T21:25:03.110Z,1013.97
2017-06-15T21:30:03.513Z,1014.11
2017-06-15T21:35:02.849Z,1014.09
2017-06-15T21:40:03.236Z,1014.17
2017-06-15T21:45:02.530Z,1014.18
2017-06-15T21:50:02.941Z,1014.17
2017-06-15T21:55:03.374Z,1014.26
2017-06-15T22:00:02.759Z,1014.25
2017-06-15T22:05:03.173Z,1014.27
2017-06-15T22:10:02.745Z,1014.32
2017-06-15T22:15:03.199Z,1014.27
2017-06-15T22:20:02.535Z,1014.37
2017-06-15T22:25:02.930Z,1014.42
2017-06-15T22:30:03.266Z,1014.35
2017-06-15T22:35:03.457Z,1014.3
2017-06-15T22:40:02.920Z,1014.32
2017-06-15T22:45:03.275Z,1014.34
2017-06-15T22:50:02.742Z,1014.38
2017-06-15T22:55:03.168Z,1014.42
2017-06-15T23:00:03.651Z,1014.44
2017-06-15T23:05:03.102Z,1014.45
2017-06-15T23:10:02.504Z,1014.53
2017-06-15T23:15:02.968Z,1014.54
2017-06-15T23:20:03.369Z,1014.53
2017-06-15T23:25:02.819Z,1014.46
2017-06-15T23:30:03.181Z,1014.49
2017-06-15T23:35:02.671Z,1014.5
2017-06-15T23:40:02.941Z,1014.48
2017-06-15T23:45:03.198Z,1014.46
2017-06-15T23:50:02.658Z,1014.47
2017-06-15T23:55:02.922Z,1014.48
